Time;durP1;ratioP1;P1;durP2;ratioP2;P2;SDS_P1;SDS_P2;PMS_P1;PMS_P2;Temp;Humidity;BMP_temperature;BMP_pressure;BME280_temperature;BME280_humidity;BME280_pressure;Samples;Min_cycle;Max_cycle;Signal;HPM_P1;HPM_P2
2023/02/16 00:00:29;;;;;;;16.87;11.50;;;8.10;99.90;;;;;;4993199;28;20520;-73
2023/02/16 00:02:55;;;;;;;17.20;11.27;;;8.10;99.90;;;;;;5009170;28;20444;-73
2023/02/16 00:05:31;;;;;;;16.43;11.70;;;8.10;99.90;;;;;;4996942;28;20967;-73
2023/02/16 00:07:58;;;;;;;15.37;10.93;;;8.10;99.90;;;;;;5012111;28;20813;-73
2023/02/16 00:10:26;;;;;;;15.90;11.33;;;8.10;99.90;;;;;;4996707;28;20801;-73
2023/02/16 00:15:37;;;;;;;19.63;12.20;;;8.00;99.90;;;;;;5012271;28;20805;-73
2023/02/16 00:18:19;;;;;;;17.40;11.40;;;8.10;99.90;;;;;;5010890;28;20450;-73
2023/02/16 00:20:50;;;;;;;14.63;11.43;;;8.10;99.90;;;;;;5011373;28;20435;-73
2023/02/16 00:23:16;;;;;;;18.47;11.90;;;8.10;99.90;;;;;;4973308;28;20431;-73
2023/02/16 00:25:44;;;;;;;16.03;11.73;;;8.00;99.90;;;;;;4978611;28;20823;-73
2023/02/16 00:28:20;;;;;;;15.57;10.90;;;8.10;99.90;;;;;;5011666;28;20843;-73
2023/02/16 00:30:46;;;;;;;15.97;11.70;;;8.10;99.90;;;;;;4994819;28;20778;-73
2023/02/16 00:33:20;;;;;;;20.00;12.07;;;8.10;99.90;;;;;;4997495;28;20419;-73
2023/02/16 00:35:46;;;;;;;15.53;11.67;;;8.00;99.90;;;;;;5010768;28;20477;-73
2023/02/16 00:38:17;;;;;;;15.40;11.80;;;8.00;99.90;;;;;;5012382;28;20443;-73
2023/02/16 00:40:44;;;;;;;16.40;11.50;;;8.00;99.90;;;;;;5001521;28;20425;-73
2023/02/16 00:43:26;;;;;;;19.87;12.30;;;8.00;99.90;;;;;;5011934;28;20432;-73
2023/02/16 00:45:56;;;;;;;17.50;12.27;;;8.00;99.90;;;;;;4994197;28;20481;-73
2023/02/16 00:48:23;;;;;;;16.60;13.00;;;8.00;99.90;;;;;;4999872;28;20546;-73
2023/02/16 00:50:54;;;;;;;17.20;12.50;;;8.00;99.90;;;;;;5022329;28;21038;-73
2023/02/16 00:53:20;;;;;;;19.70;13.40;;;8.00;99.90;;;;;;5011336;28;20439;-73
2023/02/16 00:55:49;;;;;;;17.50;11.83;;;8.00;99.90;;;;;;5009684;28;20462;-73
2023/02/16 00:58:18;;;;;;;16.80;12.13;;;8.00;99.90;;;;;;5011450;28;20572;-73
2023/02/16 01:00:53;;;;;;;15.03;11.00;;;8.00;99.90;;;;;;5011318;28;20472;-73
2023/02/16 01:03:25;;;;;;;19.03;12.30;;;8.00;99.90;;;;;;4976135;28;20462;-73
2023/02/16 01:11:06;;;;;;;19.97;11.83;;;7.90;99.90;;;;;;4985937;28;20442;-73
2023/02/16 01:11:22;;;;;;;17.87;12.20;;;8.00;99.90;;;;;;5010268;28;20447;-73
2023/02/16 01:13:50;;;;;;;17.53;12.00;;;7.90;99.90;;;;;;5010964;28;20431;-73
2023/02/16 01:16:25;;;;;;;16.73;12.87;;;7.90;99.90;;;;;;5011261;28;20443;-73
2023/02/16 01:18:56;;;;;;;18.50;12.40;;;7.90;99.90;;;;;;5011455;28;20442;-73
2023/02/16 01:21:24;;;;;;;18.00;13.10;;;7.90;99.90;;;;;;4979208;28;20488;-73
2023/02/16 01:23:54;;;;;;;17.77;12.57;;;7.90;99.90;;;;;;4990889;28;20439;-73
2023/02/16 01:26:21;;;;;;;16.95;11.88;;;7.90;99.90;;;;;;5010655;28;20958;-73
2023/02/16 01:28:47;;;;;;;17.40;12.53;;;7.90;99.90;;;;;;4992102;28;20202;-73
2023/02/16 01:31:16;;;;;;;21.40;13.87;;;7.90;99.90;;;;;;5011248;28;20420;-73
2023/02/16 01:33:44;;;;;;;16.10;13.27;;;7.90;99.90;;;;;;5004006;28;20509;-73
2023/02/16 01:36:24;;;;;;;21.57;13.70;;;7.90;99.90;;;;;;4992915;28;20922;-73
2023/02/16 01:38:50;;;;;;;18.07;12.20;;;7.90;99.90;;;;;;4994248;28;20517;-73
2023/02/16 01:41:28;;;;;;;20.53;14.10;;;7.90;99.90;;;;;;5010956;28;20426;-73
2023/02/16 01:44:19;;;;;;;19.03;13.37;;;7.90;99.90;;;;;;4985113;28;20415;-73
2023/02/16 01:46:51;;;;;;;17.97;11.80;;;7.90;99.90;;;;;;4993290;28;20517;-73
2023/02/16 01:49:24;;;;;;;17.63;13.00;;;7.80;99.90;;;;;;5010915;28;20963;-73
2023/02/16 01:52:18;;;;;;;18.73;12.77;;;7.80;99.90;;;;;;4992941;28;20427;-73
2023/02/16 01:54:59;;;;;;;18.30;12.63;;;7.80;99.90;;;;;;4975672;28;20470;-73
2023/02/16 01:57:38;;;;;;;18.30;12.20;;;7.80;99.90;;;;;;5006247;28;20462;-73
2023/02/16 02:00:29;;;;;;;21.57;13.73;;;7.80;99.90;;;;;;4977583;28;20431;-73
2023/02/16 02:05:48;;;;;;;19.70;12.73;;;7.80;99.90;;;;;;4992655;28;20447;-73
2023/02/16 02:08:42;;;;;;;20.60;13.60;;;7.80;99.90;;;;;;4994367;28;20465;-73
2023/02/16 02:11:26;;;;;;;17.40;12.57;;;7.80;99.90;;;;;;5006008;28;20521;-75
2023/02/16 02:14:06;;;;;;;18.33;13.03;;;7.80;99.90;;;;;;5007099;28;20566;-75
2023/02/16 02:16:34;;;;;;;21.50;12.77;;;7.80;99.90;;;;;;5008537;28;20442;-75
2023/02/16 02:19:00;;;;;;;20.67;13.87;;;7.80;99.90;;;;;;4994771;28;20434;-75
2023/02/16 02:24:54;;;;;;;18.07;13.10;;;7.70;99.90;;;;;;5003150;28;20811;-75
2023/02/16 02:27:25;;;;;;;19.60;14.10;;;7.70;99.90;;;;;;4991069;28;20447;-75
2023/02/16 02:30:12;;;;;;;21.87;13.50;;;7.70;99.90;;;;;;5034999;28;20522;-75
2023/02/16 02:33:08;;;;;;;19.90;13.43;;;7.70;99.90;;;;;;5012963;28;20473;-75
2023/02/16 02:35:51;;;;;;;22.60;14.13;;;7.70;99.90;;;;;;5008266;28;20442;-75
2023/02/16 02:38:32;;;;;;;18.53;13.73;;;7.70;99.90;;;;;;4990878;28;20468;-75
2023/02/16 02:41:14;;;;;;;21.50;13.60;;;7.70;99.90;;;;;;4993424;28;20405;-75
2023/02/16 02:43:51;;;;;;;19.63;13.10;;;7.70;99.90;;;;;;4983134;28;20431;-73
2023/02/16 02:46:34;;;;;;;19.97;13.47;;;7.70;99.90;;;;;;4995181;28;20446;-75
2023/02/16 02:49:04;;;;;;;17.97;13.20;;;7.70;99.90;;;;;;4995108;28;20875;-74
2023/02/16 02:51:39;;;;;;;20.37;13.63;;;7.60;99.90;;;;;;5010717;28;20453;-75
2023/02/16 03:00:42;;;;;;;23.00;13.80;;;7.60;99.90;;;;;;4992935;28;20489;-75
2023/02/16 03:03:22;;;;;;;21.40;13.50;;;7.60;99.90;;;;;;5011073;28;20906;-75
2023/02/16 03:05:58;;;;;;;21.40;14.03;;;7.60;99.90;;;;;;4979838;28;21069;-75
2023/02/16 03:08:27;;;;;;;21.90;13.77;;;7.60;99.90;;;;;;4996397;28;20466;-74
2023/02/16 03:14:02;;;;;;;20.90;14.20;;;7.60;99.90;;;;;;5003714;28;20526;-75
2023/02/16 03:16:37;;;;;;;23.10;14.03;;;7.60;99.90;;;;;;4994679;28;20440;-75
2023/02/16 03:30:18;;;;;;;19.90;14.30;;;7.60;99.90;;;;;;4994105;28;20413;-75
2023/02/16 03:32:50;;;;;;;21.57;13.10;;;7.60;99.90;;;;;;4979676;28;20424;-75
2023/02/16 03:35:19;;;;;;;19.57;13.60;;;7.60;99.90;;;;;;4990166;28;21168;-75
2023/02/16 03:37:48;;;;;;;19.03;13.70;;;7.60;99.90;;;;;;5002865;28;20498;-75
2023/02/16 03:40:28;;;;;;;19.70;14.13;;;7.60;99.90;;;;;;5013548;28;20781;-74
2023/02/16 03:43:00;;;;;;;25.20;15.77;;;7.50;99.90;;;;;;5003996;28;21216;-75
2023/02/16 03:45:27;;;;;;;18.77;12.77;;;7.60;99.90;;;;;;4977934;28;20486;-75
2023/02/16 03:47:55;;;;;;;19.53;14.50;;;7.50;99.90;;;;;;5008519;28;21061;-75
2023/02/16 03:50:21;;;;;;;24.13;14.67;;;7.60;99.90;;;;;;5013056;28;20442;-74
2023/02/16 03:52:47;;;;;;;21.10;15.03;;;7.60;99.90;;;;;;5013338;28;20501;-75
2023/02/16 03:55:16;;;;;;;19.80;12.83;;;7.60;99.90;;;;;;4996395;28;20431;-75
2023/02/16 03:57:46;;;;;;;21.20;13.90;;;7.60;99.90;;;;;;5013444;28;20561;-75
2023/02/16 04:00:15;;;;;;;19.17;14.03;;;7.60;99.90;;;;;;4996746;28;20435;-75
2023/02/16 04:02:42;;;;;;;20.03;14.20;;;7.50;99.90;;;;;;4993442;28;20451;-75
2023/02/16 04:05:11;;;;;;;21.58;14.38;;;7.60;99.90;;;;;;5013118;28;20468;-75
2023/02/16 04:07:39;;;;;;;21.10;14.50;;;7.50;99.90;;;;;;5012858;28;20772;-75
2023/02/16 04:10:09;;;;;;;19.40;13.90;;;7.50;99.90;;;;;;4995964;28;20867;-78
2023/02/16 04:12:37;;;;;;;17.60;13.37;;;7.50;99.90;;;;;;4999273;28;20518;-75
2023/02/16 04:15:26;;;;;;;18.37;12.83;;;7.50;99.90;;;;;;5010689;28;20927;-75
2023/02/16 04:17:57;;;;;;;19.40;13.50;;;7.50;99.90;;;;;;5012213;28;20505;-75
2023/02/16 04:20:29;;;;;;;21.60;14.57;;;7.50;99.90;;;;;;4994143;28;20993;-75
2023/02/16 04:22:57;;;;;;;20.63;14.23;;;7.50;99.90;;;;;;4981084;28;20505;-75
2023/02/16 04:25:26;;;;;;;20.20;13.73;;;7.50;99.90;;;;;;4995837;28;20461;-75
2023/02/16 04:27:55;;;;;;;21.47;14.07;;;7.50;99.90;;;;;;5012129;28;20467;-73
2023/02/16 04:30:24;;;;;;;19.93;13.73;;;7.40;99.90;;;;;;4996468;28;20447;-75
2023/02/16 04:32:50;;;;;;;22.17;14.03;;;7.40;99.90;;;;;;4999593;28;20424;-75
2023/02/16 04:35:17;;;;;;;20.60;13.93;;;7.50;99.90;;;;;;4987233;28;20478;-75
2023/02/16 04:37:43;;;;;;;21.10;13.53;;;7.50;99.90;;;;;;5000734;28;20457;-75
2023/02/16 04:40:12;;;;;;;20.03;14.50;;;7.50;99.90;;;;;;5011717;28;20431;-75
2023/02/16 04:42:44;;;;;;;20.50;13.40;;;7.50;99.90;;;;;;4977969;28;20421;-75
2023/02/16 04:45:11;;;;;;;18.97;13.90;;;7.50;99.90;;;;;;4988303;28;20463;-73
2023/02/16 04:47:37;;;;;;;21.20;14.80;;;7.40;99.90;;;;;;4992861;28;21036;-75
2023/02/16 04:50:07;;;;;;;21.50;13.60;;;7.40;99.90;;;;;;4998672;28;20517;-74
2023/02/16 04:52:40;;;;;;;21.60;14.27;;;7.40;99.90;;;;;;5001288;28;20431;-75
2023/02/16 04:55:09;;;;;;;21.80;14.77;;;7.50;99.90;;;;;;5011865;28;20488;-75
2023/02/16 04:57:37;;;;;;;23.03;14.60;;;7.40;99.90;;;;;;4994343;28;20477;-75
2023/02/16 05:00:10;;;;;;;18.70;12.67;;;7.40;99.90;;;;;;5011410;28;20454;-75
2023/02/16 05:02:38;;;;;;;23.90;14.70;;;7.40;99.90;;;;;;4994803;28;20426;-75
2023/02/16 05:05:05;;;;;;;19.43;13.60;;;7.40;99.90;;;;;;4992407;28;20404;-74
2023/02/16 05:07:31;;;;;;;20.30;13.73;;;7.40;99.90;;;;;;5003013;28;20452;-74
2023/02/16 05:09:59;;;;;;;22.97;15.13;;;7.40;99.90;;;;;;4996081;28;20419;-71
2023/02/16 05:15:19;;;;;;;21.80;13.97;;;7.40;99.90;;;;;;4993426;28;20442;-74
2023/02/16 05:17:47;;;;;;;21.33;14.77;;;7.40;99.90;;;;;;4984775;28;20502;-73
2023/02/16 05:20:13;;;;;;;22.00;14.20;;;7.40;99.90;;;;;;4975924;28;20897;-73
2023/02/16 05:22:39;;;;;;;24.23;15.50;;;7.40;99.90;;;;;;5010616;28;20828;-76
2023/02/16 05:25:08;;;;;;;20.47;14.03;;;7.40;99.90;;;;;;4963465;28;20455;-76
2023/02/16 05:27:36;;;;;;;22.00;15.07;;;7.40;99.90;;;;;;5004980;28;20544;-76
2023/02/16 05:30:03;;;;;;;18.92;13.20;;;7.40;99.90;;;;;;4976773;28;20419;-76
2023/02/16 05:32:31;;;;;;;20.30;13.33;;;7.40;99.90;;;;;;5000572;28;20188;-75
2023/02/16 05:34:57;;;;;;;21.93;15.03;;;7.40;99.90;;;;;;4984864;28;20427;-77
2023/02/16 05:37:23;;;;;;;21.40;13.97;;;7.30;99.90;;;;;;4996293;28;20546;-76
2023/02/16 05:39:51;;;;;;;21.30;14.93;;;7.40;99.90;;;;;;4998937;28;20459;-76
2023/02/16 05:42:19;;;;;;;22.10;13.03;;;7.30;99.90;;;;;;4977018;28;20805;-76
2023/02/16 05:44:48;;;;;;;21.20;13.57;;;7.30;99.90;;;;;;5002503;28;20467;-76
2023/02/16 05:47:19;;;;;;;22.57;15.00;;;7.30;99.90;;;;;;4992243;28;20447;-76
2023/02/16 05:49:45;;;;;;;22.10;15.23;;;7.30;99.90;;;;;;5012401;28;20505;-76
2023/02/16 05:52:11;;;;;;;22.07;15.40;;;7.30;99.90;;;;;;4996828;28;20439;-76
2023/02/16 05:54:39;;;;;;;19.33;13.77;;;7.30;99.90;;;;;;4980631;28;20432;-76
2023/02/16 05:57:11;;;;;;;20.53;14.33;;;7.30;99.90;;;;;;4995000;28;20446;-75
2023/02/16 05:59:37;;;;;;;21.43;14.63;;;7.30;99.90;;;;;;5008723;28;20450;-76
2023/02/16 06:02:06;;;;;;;20.17;13.30;;;7.30;99.90;;;;;;5005579;28;20495;-76
2023/02/16 06:04:33;;;;;;;23.90;14.97;;;7.30;99.90;;;;;;5010776;28;20812;-75
2023/02/16 06:07:01;;;;;;;23.80;15.27;;;7.30;99.90;;;;;;5011364;28;20489;-76
2023/02/16 06:09:30;;;;;;;21.13;14.50;;;7.30;99.90;;;;;;4994240;28;20458;-76
2023/02/16 06:11:58;;;;;;;24.37;15.43;;;7.30;99.90;;;;;;4959833;28;20436;-76
2023/02/16 06:14:24;;;;;;;21.17;14.87;;;7.30;99.90;;;;;;5008264;28;20429;-75
2023/02/16 06:16:51;;;;;;;19.95;14.38;;;7.30;99.90;;;;;;5006347;28;20485;-76
2023/02/16 06:19:20;;;;;;;21.10;14.15;;;7.30;99.90;;;;;;4991376;28;20274;-76
2023/02/16 06:21:46;;;;;;;21.37;14.90;;;7.20;99.90;;;;;;4994264;28;20545;-76
2023/02/16 06:24:13;;;;;;;23.77;15.13;;;7.30;99.90;;;;;;5005907;28;20477;-76
2023/02/16 06:26:40;;;;;;;20.47;14.43;;;7.20;99.90;;;;;;5009890;28;20548;-76
2023/02/16 06:29:08;;;;;;;22.10;14.10;;;7.20;99.90;;;;;;5011403;28;20520;-73
2023/02/16 06:31:34;;;;;;;21.57;15.50;;;7.20;99.90;;;;;;4992675;28;21012;-76
2023/02/16 06:34:03;;;;;;;22.10;15.30;;;7.20;99.90;;;;;;4995249;28;20431;-75
2023/02/16 06:36:30;;;;;;;22.27;14.15;;;7.20;99.90;;;;;;4990468;28;20199;-74
2023/02/16 06:38:56;;;;;;;21.80;14.70;;;7.20;99.90;;;;;;5007852;28;20227;-73
2023/02/16 06:41:30;;;;;;;22.30;15.20;;;7.20;99.90;;;;;;5006682;28;20793;-74
2023/02/16 06:44:01;;;;;;;23.93;14.63;;;7.20;99.90;;;;;;5006793;28;20438;-74
2023/02/16 06:46:28;;;;;;;22.83;14.98;;;7.20;99.90;;;;;;5007679;28;21783;-74
2023/02/16 06:48:59;;;;;;;25.90;16.27;;;7.20;99.90;;;;;;5005297;28;20286;-74
2023/02/16 06:51:26;;;;;;;21.77;13.90;;;7.20;99.90;;;;;;4997358;28;20494;-73
2023/02/16 06:53:55;;;;;;;22.27;15.63;;;7.20;99.90;;;;;;5007423;28;20921;-76
2023/02/16 06:56:21;;;;;;;22.07;15.53;;;7.20;99.90;;;;;;4996369;28;20451;-75
2023/02/16 06:58:47;;;;;;;24.53;14.80;;;7.20;99.90;;;;;;5002409;28;20451;-73
2023/02/16 07:01:14;;;;;;;22.70;14.40;;;7.20;99.90;;;;;;4990655;28;20948;-75
2023/02/16 07:03:40;;;;;;;26.73;15.40;;;7.20;99.90;;;;;;4992907;28;20456;-73
2023/02/16 07:06:08;;;;;;;23.20;15.57;;;7.20;99.90;;;;;;4969699;28;20209;-72
2023/02/16 07:08:34;;;;;;;20.88;14.95;;;7.10;99.90;;;;;;4999723;28;20488;-75
2023/02/16 07:11:03;;;;;;;23.13;15.03;;;7.10;99.90;;;;;;4980591;28;20306;-77
2023/02/16 07:13:29;;;;;;;19.60;13.50;;;7.10;99.90;;;;;;4976796;28;20434;-75
2023/02/16 07:15:55;;;;;;;21.87;15.17;;;7.10;99.90;;;;;;5025791;28;20422;-74
2023/02/16 07:18:21;;;;;;;24.50;16.10;;;7.10;99.90;;;;;;5005716;28;20801;-72
2023/02/16 07:20:52;;;;;;;26.30;16.40;;;7.10;99.90;;;;;;5002340;28;20437;-77
2023/02/16 07:23:18;;;;;;;25.50;16.33;;;7.10;99.90;;;;;;5011151;28;20496;-74
2023/02/16 07:25:49;;;;;;;25.23;15.67;;;7.10;99.90;;;;;;4995879;28;20447;-76
2023/02/16 07:28:20;;;;;;;25.47;15.73;;;7.10;99.90;;;;;;5009159;28;20467;-80
2023/02/16 07:30:49;;;;;;;22.20;14.23;;;7.10;99.90;;;;;;4981702;28;20440;-76
2023/02/16 07:33:18;;;;;;;23.70;16.90;;;7.20;99.90;;;;;;4989822;28;20509;-79
2023/02/16 07:35:44;;;;;;;21.93;15.00;;;7.10;99.90;;;;;;5017252;28;20952;-77
2023/02/16 07:38:10;;;;;;;21.93;14.63;;;7.10;99.90;;;;;;5013702;28;20548;-75
2023/02/16 07:40:36;;;;;;;24.00;15.63;;;7.10;99.90;;;;;;5004418;28;20536;-79
2023/02/16 07:43:10;;;;;;;22.80;15.27;;;7.20;99.90;;;;;;4995624;28;20223;-77
2023/02/16 07:45:41;;;;;;;23.83;14.90;;;7.10;99.90;;;;;;5078391;22;20878;31
2023/02/16 07:48:07;;;;;;;19.23;15.50;;;7.10;99.90;;;;;;5023725;28;20219;-72
2023/02/16 07:50:33;;;;;;;21.90;15.73;;;7.10;99.90;;;;;;5009069;28;20435;-71
2023/02/16 07:53:01;;;;;;;22.33;14.70;;;7.10;99.90;;;;;;5023039;28;20524;-71
2023/02/16 07:55:27;;;;;;;22.00;15.73;;;7.10;99.90;;;;;;5032534;28;20546;-71
2023/02/16 07:57:56;;;;;;;23.83;16.90;;;7.10;99.90;;;;;;5015834;28;20457;-72
2023/02/16 08:00:22;;;;;;;22.85;14.50;;;7.10;99.90;;;;;;5028534;28;20510;-72
2023/02/16 08:02:54;;;;;;;23.80;15.13;;;7.10;99.90;;;;;;5015805;28;20283;-71
2023/02/16 08:05:20;;;;;;;24.10;15.30;;;7.10;99.90;;;;;;5027788;28;20417;-71
2023/02/16 08:07:46;;;;;;;23.83;15.70;;;7.10;99.90;;;;;;5020888;28;20530;-72
2023/02/16 08:10:14;;;;;;;23.60;14.87;;;7.10;99.90;;;;;;5044080;28;20778;-71
2023/02/16 08:12:41;;;;;;;21.33;14.30;;;7.10;99.90;;;;;;5018772;28;20451;-71
2023/02/16 08:15:10;;;;;;;23.47;15.47;;;7.10;99.90;;;;;;5028438;28;20811;-71
2023/02/16 08:17:36;;;;;;;23.33;16.00;;;7.10;99.90;;;;;;5029116;28;20443;-72
2023/02/16 08:20:04;;;;;;;23.50;14.73;;;7.10;99.90;;;;;;5032426;28;20413;-72
2023/02/16 08:22:30;;;;;;;21.83;15.57;;;7.10;99.90;;;;;;4995650;28;20471;-71
2023/02/16 08:24:59;;;;;;;24.13;16.07;;;7.10;99.90;;;;;;5032606;28;20413;-71
2023/02/16 08:27:25;;;;;;;20.93;15.20;;;7.10;99.90;;;;;;5025830;28;20455;-71
2023/02/16 08:29:54;;;;;;;21.97;14.70;;;7.20;99.90;;;;;;5013201;28;21018;-71
2023/02/16 08:32:20;;;;;;;22.90;14.70;;;7.20;99.90;;;;;;5043243;28;20947;-72
2023/02/16 08:34:48;;;;;;;22.20;14.40;;;7.20;99.90;;;;;;5015852;28;20437;-71
2023/02/16 08:37:14;;;;;;;21.92;15.50;;;7.20;99.90;;;;;;5018452;28;20440;-71
2023/02/16 08:39:42;;;;;;;24.23;15.50;;;7.20;99.90;;;;;;5028812;28;20193;-71
2023/02/16 08:42:13;;;;;;;21.90;14.85;;;7.20;99.90;;;;;;5032459;28;20918;-71
2023/02/16 08:44:42;;;;;;;22.00;13.82;;;7.20;99.90;;;;;;5032961;28;20433;-71
2023/02/16 08:47:09;;;;;;;24.30;15.93;;;7.20;99.90;;;;;;4988058;28;20219;-71
2023/02/16 08:49:38;;;;;;;23.00;14.60;;;7.20;99.90;;;;;;5012734;28;20475;-71
2023/02/16 08:52:06;;;;;;;24.10;15.07;;;7.20;99.90;;;;;;5015002;28;20433;-71
2023/02/16 08:54:33;;;;;;;23.60;15.00;;;7.20;99.90;;;;;;5013382;28;20460;-71
2023/02/16 08:57:01;;;;;;;23.90;15.90;;;7.20;99.90;;;;;;5021680;28;20198;-71
2023/02/16 08:59:30;;;;;;;20.27;14.13;;;7.20;99.90;;;;;;5031253;28;20462;-71
2023/02/16 09:01:59;;;;;;;22.03;15.40;;;7.20;99.90;;;;;;5024949;28;20430;-72
2023/02/16 09:04:27;;;;;;;22.90;16.10;;;7.20;99.90;;;;;;5012146;28;20422;-71
2023/02/16 09:06:55;;;;;;;24.08;16.60;;;7.20;99.90;;;;;;5031565;28;20477;-71
2023/02/16 09:09:21;;;;;;;21.80;15.00;;;7.20;99.90;;;;;;5032310;28;20203;-71
2023/02/16 09:11:48;;;;;;;22.73;15.73;;;7.20;99.90;;;;;;4993930;28;20435;-71
2023/02/16 09:14:17;;;;;;;23.93;15.70;;;7.20;99.90;;;;;;5016418;28;20457;-71
2023/02/16 09:16:45;;;;;;;24.77;15.77;;;7.30;99.90;;;;;;5014751;28;20451;-71
2023/02/16 09:19:16;;;;;;;22.77;16.37;;;7.20;99.90;;;;;;5031488;28;20411;-72
2023/02/16 09:21:46;;;;;;;28.00;16.03;;;7.20;99.90;;;;;;5036307;28;20422;-71
2023/02/16 09:24:12;;;;;;;22.83;14.83;;;7.30;99.90;;;;;;5027136;28;20508;-71
2023/02/16 09:26:43;;;;;;;25.40;16.50;;;7.30;99.90;;;;;;5027048;28;20815;-72
2023/02/16 09:29:12;;;;;;;25.80;15.70;;;7.30;99.90;;;;;;5027678;28;20509;-71
2023/02/16 09:31:43;;;;;;;24.13;15.43;;;7.30;99.90;;;;;;5039678;28;20815;-72
2023/02/16 09:34:19;;;;;;;20.60;15.57;;;7.30;99.90;;;;;;5030507;28;20497;-71
2023/02/16 09:36:49;;;;;;;22.80;17.20;;;7.30;99.90;;;;;;5030748;28;20970;-71
2023/02/16 09:39:18;;;;;;;23.17;16.00;;;7.30;99.90;;;;;;5027710;28;20415;-72
2023/02/16 09:42:03;;;;;;;26.37;16.53;;;7.30;99.90;;;;;;5012215;28;20506;-71
2023/02/16 09:45:08;;;;;;;21.67;15.23;;;7.30;99.90;;;;;;5021482;28;20441;-72
2023/02/16 09:47:41;;;;;;;22.83;16.03;;;7.30;99.90;;;;;;5011068;28;20532;-72
2023/02/16 09:50:19;;;;;;;25.13;16.07;;;7.30;99.90;;;;;;5012872;28;20909;-71
2023/02/16 09:53:02;;;;;;;23.92;15.65;;;7.30;99.90;;;;;;5011058;28;20418;-72
2023/02/16 09:55:45;;;;;;;24.20;16.70;;;7.30;99.90;;;;;;5007728;28;20216;-72
2023/02/16 09:58:23;;;;;;;26.67;16.20;;;7.30;99.90;;;;;;5014245;28;20442;-72
2023/02/16 10:01:16;;;;;;;23.27;15.27;;;7.30;99.90;;;;;;5029784;28;20465;-71
2023/02/16 10:03:48;;;;;;;22.97;15.77;;;7.30;99.90;;;;;;4976677;28;20436;-71
2023/02/16 10:06:27;;;;;;;21.73;15.50;;;7.40;99.90;;;;;;5010428;28;20451;-72
2023/02/16 10:09:06;;;;;;;22.40;15.23;;;7.40;99.90;;;;;;5027103;28;20458;-71
2023/02/16 10:11:53;;;;;;;24.80;15.20;;;7.40;99.90;;;;;;5037747;28;20788;-71
2023/02/16 10:14:40;;;;;;;24.53;15.97;;;7.40;99.90;;;;;;5031081;28;20444;-71
2023/02/16 10:17:46;;;;;;;21.53;14.73;;;7.40;99.90;;;;;;5030044;28;20449;-71
2023/02/16 10:20:17;;;;;;;25.02;15.80;;;7.40;99.90;;;;;;4918790;29;20498;-71
2023/02/16 10:23:23;;;;;;;24.60;15.77;;;7.40;99.90;;;;;;5028225;28;20190;-72
2023/02/16 10:26:01;;;;;;;22.60;15.00;;;7.40;99.90;;;;;;5041890;28;20888;-72
2023/02/16 10:29:06;;;;;;;22.70;16.10;;;7.40;99.90;;;;;;5046337;28;20567;-71
2023/02/16 10:31:38;;;;;;;25.00;16.13;;;7.40;99.90;;;;;;4909534;29;20448;-72
2023/02/16 10:34:46;;;;;;;19.30;14.63;;;7.40;99.90;;;;;;5015570;28;20467;-72
2023/02/16 10:37:30;;;;;;;22.43;15.50;;;7.40;99.90;;;;;;5029926;28;20968;-71
2023/02/16 10:40:11;;;;;;;25.60;15.50;;;7.40;99.90;;;;;;5027017;28;20396;-70
2023/02/16 10:42:50;;;;;;;22.57;14.73;;;7.40;99.90;;;;;;5016034;28;20413;-71
2023/02/16 10:45:39;;;;;;;23.00;15.30;;;7.40;99.90;;;;;;5013618;28;20854;-72
2023/02/16 10:48:05;;;;;;;26.83;14.97;;;7.40;99.90;;;;;;5029970;28;20543;-69
2023/02/16 10:50:42;;;;;;;20.15;13.65;;;7.50;99.90;;;;;;5020159;28;20447;-72
2023/02/16 10:53:46;;;;;;;22.47;14.27;;;7.40;99.90;;;;;;5027484;28;20191;-72
2023/02/16 10:56:31;;;;;;;25.53;14.97;;;7.50;99.90;;;;;;5007989;28;20461;-72
2023/02/16 10:58:59;;;;;;;27.40;16.00;;;7.40;99.90;;;;;;5023656;28;20441;-72
2023/02/16 11:01:34;;;;;;;19.80;14.10;;;7.50;99.90;;;;;;5027389;28;20857;-72
2023/02/16 11:04:02;;;;;;;21.07;15.17;;;7.50;99.90;;;;;;5031960;28;20729;-72
2023/02/16 11:06:28;;;;;;;22.60;14.80;;;7.50;99.90;;;;;;5003067;28;20474;-71
2023/02/16 11:08:59;;;;;;;22.70;15.20;;;7.50;99.90;;;;;;5028131;28;20457;-73
2023/02/16 11:11:28;;;;;;;24.13;15.87;;;7.50;99.90;;;;;;5015775;28;20440;-75
2023/02/16 11:14:04;;;;;;;22.27;14.57;;;7.50;99.90;;;;;;5026343;28;20445;-76
2023/02/16 11:16:30;;;;;;;23.90;15.23;;;7.50;99.90;;;;;;5031044;28;20476;-73
2023/02/16 11:19:17;;;;;;;23.60;15.43;;;7.50;99.90;;;;;;5031491;28;20409;-73
2023/02/16 11:21:49;;;;;;;19.90;14.20;;;7.60;99.90;;;;;;5016529;28;20446;-76
2023/02/16 11:24:30;;;;;;;21.73;15.20;;;7.60;99.90;;;;;;5010917;28;20846;-74
2023/02/16 11:27:13;;;;;;;21.40;14.87;;;7.60;99.90;;;;;;5011474;28;20454;-76
2023/02/16 11:29:40;;;;;;;21.97;14.70;;;7.60;99.90;;;;;;5028754;28;20514;-74
2023/02/16 11:32:11;;;;;;;21.50;14.90;;;7.70;99.90;;;;;;5028263;28;20454;-75
2023/02/16 11:34:50;;;;;;;22.53;15.50;;;7.70;99.90;;;;;;5027974;28;20522;-74
2023/02/16 11:37:27;;;;;;;24.30;15.63;;;7.70;99.90;;;;;;5011254;28;20558;-74
2023/02/16 11:39:57;;;;;;;23.60;17.27;;;7.70;99.90;;;;;;5028078;28;20454;-75
2023/02/16 11:42:34;;;;;;;21.97;14.93;;;7.70;99.90;;;;;;5019675;28;20448;-76
2023/02/16 11:45:02;;;;;;;23.87;16.10;;;7.70;99.90;;;;;;5030346;28;20517;-75
2023/02/16 11:47:38;;;;;;;24.90;15.90;;;7.80;99.90;;;;;;5031276;28;20468;-75
2023/02/16 11:50:22;;;;;;;21.37;16.03;;;7.80;99.90;;;;;;5041220;28;20484;-75
2023/02/16 11:52:51;;;;;;;24.13;16.40;;;7.80;99.90;;;;;;5030907;28;20457;-75
2023/02/16 11:55:34;;;;;;;21.70;14.37;;;7.80;99.90;;;;;;5028772;28;20417;-75
2023/02/16 11:58:24;;;;;;;21.90;14.97;;;7.80;99.90;;;;;;5031170;28;20453;-76
2023/02/16 12:01:11;;;;;;;22.17;14.33;;;7.80;99.90;;;;;;5021319;28;20999;-74
2023/02/16 12:03:53;;;;;;;26.30;14.47;;;7.90;99.90;;;;;;5042116;28;20433;-74
2023/02/16 12:06:43;;;;;;;21.60;15.67;;;7.80;99.90;;;;;;5013798;28;20458;-76
2023/02/16 12:10:02;;;;;;;24.47;16.37;;;7.80;99.90;;;;;;5020377;28;20459;-75
2023/02/16 12:13:05;;;;;;;24.33;15.27;;;7.90;99.90;;;;;;4983680;28;20439;-74
2023/02/16 12:15:45;;;;;;;22.07;15.00;;;7.90;99.90;;;;;;4995430;28;20480;-73
2023/02/16 12:18:23;;;;;;;22.67;14.70;;;7.90;99.90;;;;;;5030075;28;20522;-71
2023/02/16 12:20:58;;;;;;;24.07;16.03;;;7.90;99.90;;;;;;5014589;28;20395;-73
2023/02/16 12:23:27;;;;;;;25.37;16.03;;;7.90;99.90;;;;;;5029651;28;20826;-73
2023/02/16 12:25:59;;;;;;;23.63;16.10;;;7.90;99.90;;;;;;5027282;28;20939;-73
2023/02/16 12:28:34;;;;;;;21.50;14.53;;;7.90;99.90;;;;;;5016072;28;20565;-74
2023/02/16 12:31:06;;;;;;;25.87;17.03;;;7.90;99.90;;;;;;5016650;28;20827;-73
2023/02/16 12:33:51;;;;;;;24.07;15.20;;;8.00;99.90;;;;;;5033329;28;20427;-73
2023/02/16 12:36:48;;;;;;;25.23;16.77;;;8.00;99.90;;;;;;5016688;28;20975;-74
2023/02/16 12:39:41;;;;;;;21.07;16.37;;;8.00;99.90;;;;;;5033055;28;20419;-73
2023/02/16 12:42:18;;;;;;;23.23;15.33;;;8.00;99.90;;;;;;5032966;28;20507;-74
2023/02/16 12:44:53;;;;;;;24.90;16.93;;;8.00;99.90;;;;;;5016461;28;20438;-74
2023/02/16 12:47:31;;;;;;;17.90;13.93;;;8.00;99.90;;;;;;5032332;28;20465;-74
2023/02/16 12:50:03;;;;;;;23.77;16.13;;;8.00;99.90;;;;;;5014206;28;20548;-74
2023/02/16 12:52:38;;;;;;;23.40;15.80;;;8.00;99.90;;;;;;5032625;28;20502;-74
2023/02/16 12:55:27;;;;;;;26.07;16.90;;;8.10;99.90;;;;;;5040484;28;20428;-74
2023/02/16 12:58:21;;;;;;;25.03;15.40;;;8.10;99.90;;;;;;5022817;28;21031;-72
2023/02/16 13:01:00;;;;;;;23.53;16.80;;;8.10;99.90;;;;;;5015511;28;21006;-74
2023/02/16 13:03:41;;;;;;;26.63;17.60;;;8.10;99.90;;;;;;5048123;28;20434;-72
2023/02/16 13:06:29;;;;;;;18.10;14.73;;;8.20;99.90;;;;;;5052458;28;20492;-73
2023/02/16 13:08:55;;;;;;;23.77;16.40;;;8.20;99.90;;;;;;5050486;28;20445;-73
2023/02/16 13:11:35;;;;;;;23.60;16.67;;;8.20;99.90;;;;;;5051841;28;20446;-74
2023/02/16 13:14:05;;;;;;;25.53;16.77;;;8.20;99.90;;;;;;5033315;28;20422;-73
2023/02/16 13:16:52;;;;;;;25.77;16.50;;;8.20;99.90;;;;;;5016067;28;20803;-73
2023/02/16 13:19:18;;;;;;;24.40;16.30;;;8.20;99.90;;;;;;5014878;28;20467;-73
2023/02/16 13:21:57;;;;;;;24.63;17.00;;;8.30;99.90;;;;;;5028575;28;20451;-73
2023/02/16 13:24:40;;;;;;;25.03;16.50;;;8.30;99.90;;;;;;5028207;28;20496;-74
2023/02/16 13:27:44;;;;;;;20.57;16.00;;;8.30;99.90;;;;;;5043556;28;20497;-73
2023/02/16 13:30:39;;;;;;;23.17;16.60;;;8.30;99.90;;;;;;5052915;28;20470;-73
2023/02/16 13:33:38;;;;;;;25.43;16.77;;;8.30;99.90;;;;;;5066542;28;20487;-73
2023/02/16 13:36:26;;;;;;;22.67;15.67;;;8.30;99.90;;;;;;5019326;28;20962;-73
2023/02/16 13:39:39;;;;;;;21.60;15.37;;;8.30;99.90;;;;;;5051653;28;20489;-74
2023/02/16 13:42:24;;;;;;;19.70;14.37;;;8.40;99.90;;;;;;5029342;28;20461;-73